Nachricht schicken

Als Motivator hinzufügen


Neu bei Trainingstagebuch.org?

Jetzt registrieren


Letzten 28 Tage

Trainingseinheiten: 12 92 % \
Zeit: 34.69 Std. 143 % /
Kilometer: 644.02 km 115 % /
Kalorienverbrauch: 19312 kCal 124 % /

KW 44, 2014

Trainingseinheiten: 1
Zeit: 6.65 Std.
Kilometer: 60.37 km
Kalorienverbrauch: 1996 kCal

2014

Trainingseinheiten: 13
Zeit: 37.28 Std.
Kilometer: 695.00 km
Kalorienverbrauch: 20895 kCal

2014

Trainingseinheiten: 119
Zeit: 156.56 Std.
Kilometer: 4151.54 km
Kalorienverbrauch: 88182 kCal

Gesamt

Trainingseinheiten: 806
Zeit: 726.46 Std.
Kilometer: 22823.14 km
Kalorienverbrauch: 396928 kCal

Weitersagen

E-Mail

Werbung deaktivieren

Trainingstagebuch von hobu54 Mann Pro-Mitglied

Ich bin Kripo-Beamter und hatte im März 2009 zwei Herzinfarkte. Im Zuge dessen wurden mir mehrere Stents gesetzt. Den Sport betreibe ich zur Rehabilitierung und fühle mich wohl dabei.
Ich war jahrelang der Meinung, dass Polizei ohne mich nicht geht. Die Antwort habe ich bekommen :(. Jetzt habe ich dank meines Polizeiarztes umdenken müssen und das ist gut so. Ich bin jetzt durch den Sport, den ich jahrelang vernachlässigt habe, in einem besserem Zustand als vor dem Ereignis.

Trainingsbereich Datum Dauer Distanz Geschw. Dschn. Herzfreq. Dschn. Watt Dschn. Trainingsbereich
01:00:08 35.60 km 35.6 km/h 127 bpm 115 W Indoor Cycling, Ausdauertraining
01:00:11 35.40 km 35.4 km/h 125 bpm 110 W Indoor Cycling, Ausdauertraining
01:00:11 36.20 km 36.2 km/h 125 bpm 120 W Indoor Cycling, Ausdauertraining
01:00:10 35.40 km 35.4 km/h 123 bpm 115 W Indoor Cycling, Ausdauertraining
01:00:15 34.80 km 34.8 km/h 122 bpm 115 W Indoor Cycling, Ausdauertraining
01:00:00 35.70 km 35.7 km/h 130 bpm 115 W Indoor Cycling, Ausdauertraining
01:00:00 34.40 km 34.4 km/h 128 bpm 110 W Indoor Cycling, Ausdauertraining
01:00:00 34.30 km 34.3 km/h 130 bpm 100 W Indoor Cycling, Ausdauertraining
01:00:09 33.90 km 33.9 km/h 128 bpm 100 W Indoor Cycling, Ausdauertraining
01:01:21 35.20 km 35.2 km/h 135 bpm 100 W Indoor Cycling, Ausdauertraining
01:00:00 35.50 km 35.5 km/h 135 bpm 106 W Indoor Cycling, Ausdauertraining
01:00:00 34.10 km 34.1 km/h 136 bpm 107 W Indoor Cycling, Ausdauertraining
01:00:00 34.00 km 34.0 km/h 136 bpm 109 W Indoor Cycling, Ausdauertraining
01:00:00 34.40 km 34.4 km/h 135 bpm 110 W Indoor Cycling, Ausdauertraining
01:00:00 35.00 km 35.0 km/h 135 bpm 106 W Indoor Cycling, Ausdauertraining
01:00:00 33.80 km 33.8 km/h 130 bpm 112 W Indoor Cycling, Ausdauertraining
01:00:00 34.00 km 34.0 km/h 131 bpm 132 W Indoor Cycling, Ausdauertraining
01:00:00 34.00 km 34.0 km/h 134 bpm 111 W Indoor Cycling, Ausdauertraining
01:00:00 34.70 km 34.7 km/h 131 bpm 112 W Indoor Cycling, Ausdauertraining
01:00:00 33.80 km 33.8 km/h 136 bpm 100 W Indoor Cycling, Ausdauertraining
01:00:00 33.50 km 33.5 km/h 133 bpm 105 W Indoor Cycling, Ausdauertraining
01:00:00 33.20 km 33.2 km/h 134 bpm 115 W Indoor Cycling, Ausdauertraining
01:00:00 32.50 km 32.5 km/h 134 bpm 110 W Indoor Cycling, Ausdauertraining
01:00:00 32.60 km 32.6 km/h 132 bpm 117 W Indoor Cycling, Ausdauertraining
01:00:00 32.10 km 32.1 km/h 133 bpm 115 W Indoor Cycling, Ausdauertraining
01:00:00 32.80 km 32.8 km/h 134 bpm 107 W Indoor Cycling, Ausdauertraining
01:00:00 32.50 km 32.5 km/h 132 bpm 113 W Indoor Cycling, Ausdauertraining
01:00:00 32.80 km 32.8 km/h 134 bpm 112 W Indoor Cycling, Ausdauertraining
01:00:00 33.30 km 33.3 km/h 135 bpm 109 W Indoor Cycling, Ausdauertraining
01:00:00 32.40 km 32.4 km/h 136 bpm 105 W Indoor Cycling, Ausdauertraining
01:00:00 33.30 km 33.3 km/h 135 bpm 112 W Indoor Cycling, Ausdauertraining
01:10:00 39.00 km 33.4 km/h 134 bpm 105 W Indoor Cycling, Ausdauertraining
01:00:00 32.60 km 32.6 km/h 133 bpm 101 W Indoor Cycling, Ausdauertraining
01:00:00 33.40 km 33.4 km/h 135 bpm 103 W Indoor Cycling, Ausdauertraining
01:00:00 33.20 km 33.2 km/h 135 bpm 96 W Indoor Cycling, Ausdauertraining
01:00:00 32.70 km 32.7 km/h 137 bpm 100 W Indoor Cycling, Ausdauertraining
01:00:00 34.30 km 34.3 km/h 134 bpm 112 W Indoor Cycling, Ausdauertraining
01:00:00 33.30 km 33.3 km/h 132 bpm 90 W Indoor Cycling, Ausdauertraining
01:00:00 32.60 km 32.6 km/h 136 bpm 104 W Indoor Cycling, Ausdauertraining
01:00:00 33.20 km 33.2 km/h 133 bpm 113 W Indoor Cycling, Ausdauertraining